Time;durP1;ratioP1;P1;durP2;ratioP2;P2;SDS_P1;SDS_P2;PMS_P1;PMS_P2;Temp;Humidity;BMP_temperature;BMP_pressure;BME280_temperature;BME280_humidity;BME280_pressure;Samples;Min_cycle;Max_cycle;Signal;HPM_P1;HPM_P2
2021/11/06 00:02:20;;;;;;;4.10;2.28;;;18.20;99.90;;;;;;5093212;28;20016;-67
2021/11/06 00:04:46;;;;;;;5.60;2.13;;;18.20;99.90;;;;;;5093259;28;20103;-66
2021/11/06 00:07:12;;;;;;;4.03;2.13;;;18.20;99.90;;;;;;5091698;28;20411;-66
2021/11/06 00:09:38;;;;;;;3.47;2.25;;;18.20;99.90;;;;;;5093356;28;20020;-67
2021/11/06 00:12:04;;;;;;;3.90;2.25;;;18.20;99.90;;;;;;5092633;28;20020;-68
2021/11/06 00:14:30;;;;;;;3.70;2.20;;;18.20;99.90;;;;;;5093101;28;20063;-66
2021/11/06 00:16:55;;;;;;;4.40;2.30;;;18.20;99.90;;;;;;5093010;28;20460;-71
2021/11/06 00:19:21;;;;;;;3.97;2.20;;;18.20;99.90;;;;;;5092909;28;20032;-69
2021/11/06 00:21:47;;;;;;;4.30;2.30;;;18.20;99.90;;;;;;5091798;28;20016;-69
2021/11/06 00:24:12;;;;;;;3.38;2.13;;;18.20;99.90;;;;;;5092864;28;20020;-74
2021/11/06 00:26:38;;;;;;;3.95;2.25;;;18.20;99.90;;;;;;5092909;28;20069;-70
2021/11/06 00:29:05;;;;;;;3.92;2.33;;;18.30;99.90;;;;;;5093257;28;20047;-67
2021/11/06 00:31:30;;;;;;;3.60;2.28;;;18.30;99.90;;;;;;5093320;28;20032;-71
2021/11/06 00:33:56;;;;;;;3.70;2.38;;;18.30;99.90;;;;;;5092670;28;20081;-68
2021/11/06 00:36:24;;;;;;;4.47;2.67;;;18.30;99.90;;;;;;5092551;28;20020;-68
2021/11/06 00:38:50;;;;;;;3.85;2.33;;;18.30;99.90;;;;;;5092731;28;20437;-65
2021/11/06 00:41:16;;;;;;;3.60;2.17;;;18.30;99.90;;;;;;5092405;28;20052;-68
2021/11/06 00:43:41;;;;;;;3.90;2.60;;;18.30;99.90;;;;;;5092755;28;20056;-66
2021/11/06 00:46:07;;;;;;;3.95;2.15;;;18.30;99.90;;;;;;5092393;28;20115;-70
2021/11/06 00:48:33;;;;;;;4.35;2.20;;;18.30;99.90;;;;;;5092861;28;20024;-70
2021/11/06 00:50:59;;;;;;;3.00;2.03;;;18.30;99.90;;;;;;5092525;28;20022;-69
2021/11/06 00:53:24;;;;;;;3.58;1.95;;;18.30;99.90;;;;;;5091999;28;20074;-66
2021/11/06 00:55:50;;;;;;;3.47;1.70;;;18.30;99.90;;;;;;5092691;28;20047;-68
2021/11/06 00:58:16;;;;;;;4.05;2.20;;;18.40;99.90;;;;;;5091935;28;20032;-66
2021/11/06 01:00:41;;;;;;;5.53;2.30;;;18.40;99.90;;;;;;5092391;28;20024;-68
2021/11/06 01:03:07;;;;;;;2.95;1.85;;;18.40;99.90;;;;;;5092228;28;20020;-64
2021/11/06 01:05:33;;;;;;;4.32;2.00;;;18.40;99.90;;;;;;5092579;28;20060;-68
2021/11/06 01:07:58;;;;;;;6.40;2.30;;;18.40;99.90;;;;;;5092197;28;20020;-68
2021/11/06 01:10:24;;;;;;;3.40;2.08;;;18.40;99.90;;;;;;5092087;28;20376;-74
2021/11/06 01:12:50;;;;;;;3.78;2.40;;;18.40;99.90;;;;;;5092392;28;20128;-81
2021/11/06 01:15:16;;;;;;;3.78;1.90;;;18.40;99.90;;;;;;5092175;28;20028;-78
2021/11/06 01:17:43;;;;;;;2.95;1.88;;;18.50;99.90;;;;;;5093741;28;20028;-78
2021/11/06 01:20:09;;;;;;;3.13;2.08;;;18.50;99.90;;;;;;5093499;28;20131;-78
2021/11/06 01:22:36;;;;;;;3.47;2.10;;;18.50;99.90;;;;;;5091726;28;20032;-76
2021/11/06 01:25:02;;;;;;;3.03;2.03;;;18.50;99.90;;;;;;5093499;28;20035;-73
2021/11/06 01:27:28;;;;;;;3.00;1.83;;;18.50;99.90;;;;;;5091731;28;20021;-77
2021/11/06 01:29:53;;;;;;;5.65;2.10;;;18.50;99.90;;;;;;5093245;28;20523;-80
2021/11/06 01:32:19;;;;;;;11.23;2.10;;;18.60;99.90;;;;;;5091657;28;20024;-74
2021/11/06 01:34:45;;;;;;;2.63;1.67;;;18.50;99.90;;;;;;5091876;28;20118;-78
2021/11/06 01:37:11;;;;;;;4.47;2.17;;;18.50;99.90;;;;;;5091362;28;20535;-78
2021/11/06 01:39:36;;;;;;;4.30;1.73;;;18.60;99.90;;;;;;5090453;28;20169;-75
2021/11/06 01:42:03;;;;;;;2.17;1.60;;;18.60;99.90;;;;;;5091981;28;20024;-80
2021/11/06 01:44:30;;;;;;;3.17;2.00;;;18.60;99.90;;;;;;5091451;28;20032;-81
2021/11/06 01:46:56;;;;;;;2.67;1.67;;;18.60;99.90;;;;;;5091812;28;20024;-78
2021/11/06 01:49:21;;;;;;;3.40;1.58;;;18.60;99.90;;;;;;5090209;28;20031;-69
2021/11/06 01:51:52;;;;;;;2.63;1.67;;;18.60;99.90;;;;;;5091501;28;20028;-77
2021/11/06 01:54:21;;;;;;;4.30;1.88;;;18.60;99.90;;;;;;5091169;28;20158;-77
2021/11/06 01:56:47;;;;;;;2.47;1.70;;;18.60;99.90;;;;;;5091405;28;20023;-77
2021/11/06 01:59:13;;;;;;;3.38;2.05;;;18.60;99.90;;;;;;5091105;28;20127;-65
2021/11/06 02:01:39;;;;;;;4.88;1.98;;;18.70;99.90;;;;;;5091604;28;20099;-78
2021/11/06 02:04:05;;;;;;;3.25;1.88;;;18.70;99.90;;;;;;5091560;28;20024;-64
2021/11/06 02:06:31;;;;;;;3.65;2.08;;;18.70;99.90;;;;;;5091782;28;20063;-77
2021/11/06 02:08:56;;;;;;;2.78;1.70;;;18.70;99.90;;;;;;5091478;28;20417;-80
2021/11/06 02:11:22;;;;;;;2.80;1.58;;;18.70;99.90;;;;;;5090063;28;20055;-76
2021/11/06 02:13:48;;;;;;;5.13;1.63;;;18.70;99.90;;;;;;5091293;28;20032;-79
2021/11/06 02:16:14;;;;;;;3.00;1.80;;;18.70;99.90;;;;;;5091162;28;20054;-80
2021/11/06 02:18:40;;;;;;;3.83;2.00;;;18.70;99.90;;;;;;5090075;28;20056;-80
2021/11/06 02:21:08;;;;;;;3.35;1.65;;;18.70;99.90;;;;;;5091099;28;20566;-73
2021/11/06 02:23:37;;;;;;;2.35;1.40;;;18.70;99.90;;;;;;5091645;28;20020;-71
2021/11/06 02:26:03;;;;;;;3.00;1.90;;;18.70;99.90;;;;;;5090210;28;20020;-79
2021/11/06 02:28:29;;;;;;;5.22;1.80;;;18.80;99.90;;;;;;5090996;28;20051;-79
2021/11/06 02:30:55;;;;;;;2.47;1.52;;;18.80;99.90;;;;;;5091198;28;20484;-79
2021/11/06 02:33:21;;;;;;;3.28;1.55;;;18.80;99.90;;;;;;5091064;28;20028;-79
2021/11/06 02:35:47;;;;;;;3.03;1.60;;;18.80;99.90;;;;;;5092082;28;20438;-71
2021/11/06 02:38:13;;;;;;;3.63;1.50;;;18.80;99.90;;;;;;5095041;28;20032;-79
2021/11/06 02:40:39;;;;;;;3.63;1.65;;;18.80;99.90;;;;;;5094927;28;20148;-76
2021/11/06 02:43:05;;;;;;;2.90;1.60;;;18.80;99.90;;;;;;5094893;28;20027;-66
2021/11/06 02:45:31;;;;;;;7.75;1.98;;;18.80;99.90;;;;;;5095306;28;20047;-77
2021/11/06 02:47:57;;;;;;;3.88;1.80;;;18.80;99.90;;;;;;5094833;28;20493;-72
2021/11/06 02:50:23;;;;;;;3.67;1.77;;;18.80;99.90;;;;;;5094711;28;20039;-76
2021/11/06 02:52:49;;;;;;;5.47;1.75;;;18.90;99.90;;;;;;5094849;28;20032;-76
2021/11/06 02:55:14;;;;;;;3.08;1.50;;;18.90;99.90;;;;;;5094523;28;20542;-77
2021/11/06 02:57:40;;;;;;;4.78;1.88;;;18.90;99.90;;;;;;5094813;28;20517;-73
2021/11/06 03:00:09;;;;;;;3.30;1.95;;;18.90;99.90;;;;;;5095123;28;20486;-73
2021/11/06 03:02:35;;;;;;;2.47;1.70;;;18.80;99.90;;;;;;5094728;28;20036;-69
2021/11/06 03:05:06;;;;;;;3.35;1.58;;;18.90;99.90;;;;;;5094924;28;20103;-75
2021/11/06 03:07:32;;;;;;;6.40;1.70;;;18.90;99.90;;;;;;5094927;28;20081;-72
2021/11/06 03:09:58;;;;;;;3.45;1.40;;;18.90;99.90;;;;;;5094512;28;20487;-75
2021/11/06 03:12:25;;;;;;;4.57;1.60;;;18.90;99.90;;;;;;5094288;28;20071;-72
2021/11/06 03:14:51;;;;;;;3.17;1.50;;;18.90;99.90;;;;;;5094389;28;20027;-73
2021/11/06 03:17:17;;;;;;;3.42;1.52;;;18.90;99.90;;;;;;5094209;28;20472;-69
2021/11/06 03:19:42;;;;;;;6.05;1.52;;;18.90;99.90;;;;;;5094385;28;20533;-72
2021/11/06 03:22:10;;;;;;;2.47;1.52;;;18.80;99.90;;;;;;5094012;28;20024;-76
2021/11/06 03:24:36;;;;;;;3.38;1.77;;;18.90;99.90;;;;;;5093003;28;20055;-73
2021/11/06 03:27:02;;;;;;;3.92;1.80;;;18.80;99.90;;;;;;5094493;28;20074;-72
2021/11/06 03:29:28;;;;;;;3.15;1.42;;;18.80;99.90;;;;;;5093871;28;20479;-74
2021/11/06 03:31:54;;;;;;;5.28;1.60;;;18.80;99.90;;;;;;5094048;28;20112;-75
2021/11/06 03:34:19;;;;;;;4.63;1.60;;;18.70;99.90;;;;;;5093666;28;20032;-75
2021/11/06 03:36:45;;;;;;;3.17;1.40;;;18.70;99.90;;;;;;5093870;28;20028;-69
2021/11/06 03:39:11;;;;;;;4.07;1.60;;;18.70;99.90;;;;;;5093845;28;20479;-74
2021/11/06 03:41:36;;;;;;;2.85;1.40;;;18.70;99.90;;;;;;5093892;28;20528;-74
2021/11/06 03:44:03;;;;;;;2.83;1.60;;;18.70;99.90;;;;;;5094042;28;20027;-74
2021/11/06 03:46:29;;;;;;;3.85;1.70;;;18.70;99.90;;;;;;5093417;28;20035;-74
2021/11/06 03:48:54;;;;;;;2.28;1.58;;;18.60;99.90;;;;;;5092520;28;20028;-74
2021/11/06 03:51:21;;;;;;;2.20;1.55;;;18.60;99.90;;;;;;5093457;28;20104;-74
2021/11/06 03:53:46;;;;;;;5.28;2.05;;;18.60;99.90;;;;;;5093587;28;20468;-74
2021/11/06 03:56:12;;;;;;;3.17;1.60;;;18.60;99.90;;;;;;5093448;28;20068;-74
2021/11/06 03:58:38;;;;;;;2.60;1.40;;;18.50;99.90;;;;;;5093510;28;20089;-70
2021/11/06 04:01:04;;;;;;;2.38;1.50;;;18.50;99.90;;;;;;5093702;28;20024;-73
2021/11/06 04:03:30;;;;;;;3.92;1.92;;;18.50;99.90;;;;;;5093716;28;20422;-71
2021/11/06 04:05:55;;;;;;;5.05;1.70;;;18.50;99.90;;;;;;5093388;28;20073;-74
2021/11/06 04:08:21;;;;;;;3.13;1.50;;;18.50;99.90;;;;;;5093239;28;20460;-74
2021/11/06 04:10:47;;;;;;;3.22;1.55;;;18.40;99.90;;;;;;5092059;28;20022;-73
2021/11/06 04:13:13;;;;;;;2.58;1.42;;;18.40;99.90;;;;;;5091758;28;20476;-68
2021/11/06 04:15:40;;;;;;;3.33;1.50;;;18.40;99.90;;;;;;5091922;28;20111;-73
2021/11/06 04:18:06;;;;;;;2.85;1.50;;;18.40;99.90;;;;;;5093035;28;20016;-70
2021/11/06 04:20:32;;;;;;;1.98;1.35;;;18.40;99.90;;;;;;5093344;28;20070;-71
2021/11/06 04:22:58;;;;;;;5.10;1.40;;;18.30;99.90;;;;;;5092995;28;20024;-73
2021/11/06 04:25:24;;;;;;;2.03;1.17;;;18.30;99.90;;;;;;5099808;28;20099;-69
2021/11/06 04:27:49;;;;;;;3.65;1.55;;;18.30;99.90;;;;;;5113157;28;20443;-74
2021/11/06 04:30:15;;;;;;;4.13;1.40;;;18.30;99.90;;;;;;5113237;28;20106;-72
2021/11/06 04:32:42;;;;;;;3.00;1.33;;;18.20;99.90;;;;;;5112861;28;20395;-72
2021/11/06 04:35:08;;;;;;;3.75;1.70;;;18.20;99.90;;;;;;5113070;28;20083;-72
2021/11/06 04:37:35;;;;;;;2.80;1.33;;;18.20;99.90;;;;;;5113056;28;20020;-73
2021/11/06 04:40:02;;;;;;;2.22;1.08;;;18.20;99.90;;;;;;5113406;28;20383;-71
2021/11/06 04:42:28;;;;;;;2.40;1.40;;;18.20;99.90;;;;;;5112753;28;20023;-73
2021/11/06 04:44:53;;;;;;;3.03;1.40;;;18.20;99.90;;;;;;5112981;28;20020;-73
2021/11/06 04:47:19;;;;;;;3.08;1.30;;;18.10;99.90;;;;;;5112917;28;20102;-73
2021/11/06 04:49:45;;;;;;;2.25;1.40;;;18.10;99.90;;;;;;5112664;28;20035;-74
2021/11/06 04:52:10;;;;;;;2.20;1.50;;;18.10;99.90;;;;;;5112884;28;20493;-71
2021/11/06 04:54:36;;;;;;;3.20;1.60;;;18.10;99.90;;;;;;5112537;28;20039;-72
2021/11/06 04:57:02;;;;;;;3.00;1.30;;;18.10;99.90;;;;;;5113032;28;20024;-73
2021/11/06 04:59:27;;;;;;;4.45;1.60;;;18.10;99.90;;;;;;5111642;28;20429;-70
2021/11/06 05:01:53;;;;;;;2.42;1.50;;;18.00;99.90;;;;;;5112937;28;20020;-74
2021/11/06 05:04:18;;;;;;;2.30;1.65;;;18.00;99.90;;;;;;5112544;28;20027;-73
2021/11/06 05:06:44;;;;;;;2.60;1.40;;;18.00;99.90;;;;;;5112345;28;20019;-71
2021/11/06 05:09:10;;;;;;;2.75;1.35;;;18.00;99.90;;;;;;5111158;28;20383;-74
2021/11/06 05:11:35;;;;;;;2.50;1.20;;;18.00;99.90;;;;;;5112401;28;20032;-73
2021/11/06 05:14:01;;;;;;;3.72;1.30;;;17.90;99.90;;;;;;5112664;28;20031;-72
2021/11/06 05:16:27;;;;;;;2.85;1.33;;;17.90;99.90;;;;;;5112278;28;20023;-69
2021/11/06 05:18:54;;;;;;;2.45;1.50;;;17.90;99.90;;;;;;5112463;28;20118;-71
2021/11/06 05:21:21;;;;;;;2.88;1.48;;;17.90;99.90;;;;;;5112387;28;20410;-67
2021/11/06 05:23:48;;;;;;;4.35;1.60;;;17.90;99.90;;;;;;5112085;28;20034;-69
2021/11/06 05:26:14;;;;;;;3.10;1.40;;;17.80;99.90;;;;;;5112309;28;20028;-74
2021/11/06 05:28:42;;;;;;;2.35;1.20;;;17.80;99.90;;;;;;5112128;28;20031;-73
2021/11/06 05:31:08;;;;;;;3.33;1.33;;;17.80;99.90;;;;;;5112376;28;20055;-73
2021/11/06 05:33:34;;;;;;;2.70;1.27;;;17.80;99.90;;;;;;5112008;28;20041;-75
2021/11/06 05:36:00;;;;;;;3.08;1.55;;;17.80;99.90;;;;;;5112069;28;20095;-75
2021/11/06 05:38:25;;;;;;;4.88;1.77;;;17.80;99.90;;;;;;5110822;28;20027;-73
2021/11/06 05:40:51;;;;;;;2.63;1.48;;;17.80;99.90;;;;;;5111809;28;20024;-72
2021/11/06 05:43:17;;;;;;;4.25;1.30;;;17.70;99.90;;;;;;5111973;28;20543;-73
2021/11/06 05:45:42;;;;;;;3.97;1.42;;;17.70;99.90;;;;;;5111605;28;20046;-74
2021/11/06 05:48:08;;;;;;;5.53;1.60;;;17.70;99.90;;;;;;5111889;28;20054;-67
2021/11/06 05:50:34;;;;;;;1.73;1.30;;;17.70;99.90;;;;;;5111987;28;20468;-73
2021/11/06 05:52:59;;;;;;;2.22;1.10;;;17.70;99.90;;;;;;5111825;28;20460;-72
2021/11/06 05:55:25;;;;;;;15.95;1.55;;;17.60;99.90;;;;;;5111813;28;20032;-72
2021/11/06 05:57:50;;;;;;;2.70;1.35;;;17.60;99.90;;;;;;5111620;28;20027;-71
2021/11/06 06:00:19;;;;;;;4.03;1.60;;;17.60;99.90;;;;;;5111781;28;20023;-73
2021/11/06 06:02:45;;;;;;;3.45;1.30;;;17.60;99.90;;;;;;5111705;28;20489;-73
2021/11/06 06:05:12;;;;;;;2.13;1.30;;;17.60;99.90;;;;;;5111772;28;20502;-71
2021/11/06 06:07:38;;;;;;;4.75;1.65;;;17.60;99.90;;;;;;5111788;28;20016;-71
2021/11/06 06:10:08;;;;;;;2.20;1.40;;;17.60;99.90;;;;;;5112094;28;20031;-73
2021/11/06 06:12:35;;;;;;;2.60;1.40;;;17.60;99.90;;;;;;5115917;28;20513;-72
2021/11/06 06:15:01;;;;;;;2.17;1.40;;;17.60;99.90;;;;;;5115628;28;20386;-74
2021/11/06 06:17:26;;;;;;;3.78;1.38;;;17.60;99.90;;;;;;5115640;28;20020;-69
2021/11/06 06:19:52;;;;;;;2.58;1.42;;;17.60;99.90;;;;;;5115695;28;20475;-76
2021/11/06 06:22:19;;;;;;;2.67;1.30;;;17.60;99.90;;;;;;5114526;28;20032;-75
2021/11/06 06:24:44;;;;;;;2.67;1.30;;;17.60;99.90;;;;;;5115378;28;20020;-72
2021/11/06 06:27:10;;;;;;;2.15;1.23;;;17.60;99.90;;;;;;5115656;28;20034;-72
2021/11/06 06:29:36;;;;;;;6.75;1.30;;;17.60;99.90;;;;;;5115636;27;20064;-72
2021/11/06 06:32:02;;;;;;;2.50;1.30;;;17.50;99.90;;;;;;5116018;28;20050;-70
2021/11/06 06:34:27;;;;;;;3.10;1.63;;;17.50;99.90;;;;;;5115299;28;20032;-72
2021/11/06 06:36:53;;;;;;;3.50;1.52;;;17.60;99.90;;;;;;5115503;28;20016;-68
2021/11/06 06:39:18;;;;;;;2.60;1.40;;;17.50;99.90;;;;;;5115504;28;20062;-70
2021/11/06 06:41:44;;;;;;;3.15;1.90;;;17.50;99.90;;;;;;5115142;28;20019;-75
2021/11/06 06:44:10;;;;;;;2.10;1.10;;;17.50;99.90;;;;;;5115206;28;20032;-74
2021/11/06 06:46:37;;;;;;;1.75;1.30;;;17.50;99.90;;;;;;5115302;28;20024;-73
2021/11/06 06:49:03;;;;;;;2.55;1.40;;;17.50;99.90;;;;;;5115351;28;20024;-66
2021/11/06 06:51:28;;;;;;;4.38;1.42;;;17.50;99.90;;;;;;5114918;28;20031;-71
2021/11/06 06:53:54;;;;;;;2.58;1.50;;;17.50;99.90;;;;;;5115174;28;20032;-74
2021/11/06 06:56:20;;;;;;;3.28;1.30;;;17.50;99.90;;;;;;5115126;28;20026;-72
2021/11/06 06:58:45;;;;;;;2.42;1.27;;;17.50;99.90;;;;;;5114646;28;20544;-68
2021/11/06 07:01:11;;;;;;;3.20;1.40;;;17.50;99.90;;;;;;5115245;28;20429;-69
2021/11/06 07:03:37;;;;;;;4.93;1.35;;;17.50;99.90;;;;;;5114071;28;20463;-71
2021/11/06 07:06:03;;;;;;;4.35;1.30;;;17.60;99.90;;;;;;5114913;28;20031;-71
2021/11/06 07:08:29;;;;;;;3.63;1.50;;;17.50;99.90;;;;;;5095333;28;20106;-68
2021/11/06 07:10:55;;;;;;;3.25;1.38;;;17.60;99.90;;;;;;5094755;28;20118;-68
2021/11/06 07:13:21;;;;;;;3.78;1.58;;;17.50;99.90;;;;;;5094300;28;20036;-65
2021/11/06 07:15:48;;;;;;;3.35;1.40;;;17.50;99.90;;;;;;5094221;28;20561;-70
2021/11/06 07:18:14;;;;;;;3.10;1.17;;;17.50;99.90;;;;;;5094426;28;20053;-69
2021/11/06 07:20:40;;;;;;;2.63;1.25;;;17.60;99.90;;;;;;5094476;28;20095;-69
2021/11/06 07:23:05;;;;;;;4.57;1.58;;;17.60;99.90;;;;;;5093763;28;20122;-71
2021/11/06 07:25:31;;;;;;;1.80;1.23;;;17.60;99.90;;;;;;5092701;28;20462;-70
2021/11/06 07:27:57;;;;;;;3.92;1.40;;;17.60;99.90;;;;;;5094155;28;20020;-65
2021/11/06 07:30:22;;;;;;;3.97;1.30;;;17.60;99.90;;;;;;5082425;28;20369;-72
2021/11/06 07:32:49;;;;;;;2.25;1.20;;;17.60;99.90;;;;;;5072353;28;20035;-67
2021/11/06 07:35:15;;;;;;;5.53;1.40;;;17.60;99.90;;;;;;5073694;28;20484;-70
2021/11/06 07:37:40;;;;;;;2.45;1.40;;;17.60;99.90;;;;;;5086806;28;20042;-68
2021/11/06 07:40:08;;;;;;;4.28;1.33;;;17.60;99.90;;;;;;5093799;28;20487;-71
2021/11/06 07:42:36;;;;;;;2.15;1.00;;;17.60;99.90;;;;;;5093129;28;20064;-70
2021/11/06 07:45:04;;;;;;;2.58;1.10;;;17.60;99.90;;;;;;5094026;28;20028;-69
2021/11/06 07:47:30;;;;;;;2.30;1.08;;;17.60;99.90;;;;;;5093882;28;20392;-68
2021/11/06 07:49:55;;;;;;;2.70;1.27;;;17.60;99.90;;;;;;5093513;28;20012;-67
2021/11/06 07:52:21;;;;;;;2.55;1.13;;;17.70;99.90;;;;;;5093967;28;20118;-71
2021/11/06 07:54:47;;;;;;;2.42;1.13;;;17.70;99.90;;;;;;5093206;28;20034;-69
2021/11/06 07:57:13;;;;;;;2.55;1.23;;;17.60;99.90;;;;;;5093680;28;20017;-69
2021/11/06 07:59:38;;;;;;;2.47;1.10;;;17.70;99.90;;;;;;5093479;28;20042;-70
2021/11/06 08:02:04;;;;;;;2.95;1.30;;;17.70;99.90;;;;;;5093183;28;20464;-71
2021/11/06 08:04:30;;;;;;;3.60;1.35;;;17.70;99.90;;;;;;5093149;28;20051;-68
2021/11/06 08:06:56;;;;;;;2.05;1.13;;;17.70;99.90;;;;;;5093160;28;20392;-67
2021/11/06 08:09:21;;;;;;;4.65;1.50;;;17.70;99.90;;;;;;5093362;28;20076;-70
2021/11/06 08:11:47;;;;;;;3.90;1.38;;;17.70;99.90;;;;;;5092849;28;20028;-70
2021/11/06 08:14:12;;;;;;;2.15;1.27;;;17.70;99.90;;;;;;5093549;28;20499;-66
2021/11/06 08:16:38;;;;;;;2.60;1.10;;;17.70;99.90;;;;;;5093110;28;20020;-69
2021/11/06 08:19:04;;;;;;;3.75;1.30;;;17.80;99.90;;;;;;5092984;28;20035;-66
2021/11/06 08:21:29;;;;;;;5.13;1.38;;;17.80;99.90;;;;;;5092502;28;20024;-65
2021/11/06 08:23:55;;;;;;;7.22;1.38;;;17.80;99.90;;;;;;5092788;28;20031;-69
2021/11/06 08:26:20;;;;;;;4.78;1.80;;;17.70;99.90;;;;;;5092998;28;20384;-66
2021/11/06 08:28:46;;;;;;;2.92;1.88;;;17.80;99.90;;;;;;5092509;28;20047;-66
2021/11/06 08:31:12;;;;;;;5.57;2.65;;;17.70;99.90;;;;;;5092967;28;20019;-67
2021/11/06 08:33:37;;;;;;;5.43;2.47;;;17.60;99.90;;;;;;5091680;28;20020;-69
2021/11/06 08:36:03;;;;;;;5.00;2.70;;;17.60;99.90;;;;;;5091393;28;20063;-70
2021/11/06 08:38:32;;;;;;;5.45;2.65;;;17.50;99.90;;;;;;5090163;28;20030;-69
2021/11/06 08:40:58;;;;;;;4.13;2.33;;;17.50;99.90;;;;;;5092800;28;20063;-68
2021/11/06 08:43:26;;;;;;;5.05;2.33;;;17.50;99.90;;;;;;5089190;28;20028;-68
2021/11/06 08:45:52;;;;;;;7.72;3.22;;;17.50;99.90;;;;;;5091350;28;20475;-72
2021/11/06 08:48:19;;;;;;;5.60;2.55;;;17.50;99.90;;;;;;5091839;28;20043;-65
2021/11/06 08:50:45;;;;;;;8.20;2.58;;;17.50;99.90;;;;;;5091570;28;20027;-64
2021/11/06 08:53:11;;;;;;;5.72;2.42;;;17.60;99.90;;;;;;5093127;28;20031;-74
2021/11/06 08:55:36;;;;;;;4.43;2.40;;;17.60;99.90;;;;;;5091092;28;20476;-71
2021/11/06 08:58:02;;;;;;;5.97;2.60;;;17.60;99.90;;;;;;5092417;28;20028;-66
2021/11/06 09:00:34;;;;;;;9.65;2.80;;;17.60;99.90;;;;;;5081741;28;20032;-64
2021/11/06 09:03:04;;;;;;;9.00;3.22;;;17.60;99.90;;;;;;5090789;28;20548;-66
2021/11/06 09:05:30;;;;;;;10.32;2.75;;;17.60;99.90;;;;;;5083373;28;20024;-67
2021/11/06 09:07:58;;;;;;;5.97;2.30;;;17.70;99.90;;;;;;5090447;28;20026;-68
2021/11/06 09:10:24;;;;;;;7.72;3.08;;;17.70;99.90;;;;;;5090395;28;20020;-67
2021/11/06 09:12:50;;;;;;;6.90;2.47;;;17.70;99.90;;;;;;5087845;28;20016;-68
2021/11/06 09:15:16;;;;;;;5.75;2.55;;;17.70;99.90;;;;;;5090992;28;20110;-68
2021/11/06 09:17:42;;;;;;;7.38;2.28;;;17.70;99.90;;;;;;5090888;28;20099;-68
2021/11/06 09:20:08;;;;;;;7.45;2.58;;;17.70;99.90;;;;;;5090391;28;20091;-73
2021/11/06 09:22:35;;;;;;;8.85;2.35;;;17.80;99.90;;;;;;5090209;28;20400;-67
2021/11/06 09:25:01;;;;;;;5.97;2.60;;;17.80;99.90;;;;;;5088983;28;20349;-69
2021/11/06 09:27:27;;;;;;;8.15;2.47;;;17.80;99.90;;;;;;5080116;28;20074;-69
2021/11/06 09:29:53;;;;;;;7.35;2.45;;;17.80;99.90;;;;;;5084759;28;20116;-69
2021/11/06 09:32:20;;;;;;;4.45;2.13;;;17.80;99.90;;;;;;5090080;28;20053;-69
2021/11/06 09:34:45;;;;;;;7.00;2.20;;;17.80;99.90;;;;;;5088122;28;20483;-68
2021/11/06 09:37:11;;;;;;;6.50;2.38;;;17.80;99.90;;;;;;5083519;28;20021;-69
2021/11/06 09:39:37;;;;;;;6.78;2.30;;;17.80;99.90;;;;;;5082545;28;20109;-68
2021/11/06 09:42:04;;;;;;;5.18;1.95;;;17.90;99.90;;;;;;5082399;28;20031;-68
2021/11/06 09:44:30;;;;;;;5.90;2.63;;;17.90;99.90;;;;;;5089822;28;20035;-68
2021/11/06 09:46:58;;;;;;;5.03;2.22;;;17.90;99.90;;;;;;5089845;28;20597;-69
2021/11/06 09:49:24;;;;;;;4.97;2.15;;;17.90;99.90;;;;;;5079793;28;20064;-69
2021/11/06 09:51:50;;;;;;;4.43;1.73;;;17.90;99.90;;;;;;5083760;28;20439;-69
2021/11/06 09:54:16;;;;;;;5.68;1.98;;;17.90;99.90;;;;;;5076798;28;20093;-69
2021/11/06 09:56:42;;;;;;;4.93;2.20;;;18.00;99.90;;;;;;5074559;28;20028;-69
2021/11/06 09:59:08;;;;;;;3.28;1.70;;;18.00;99.90;;;;;;5090636;28;20036;-69
2021/11/06 10:01:34;;;;;;;3.30;1.58;;;18.00;99.90;;;;;;5079496;28;20035;-69
2021/11/06 10:04:07;;;;;;;7.07;2.10;;;17.90;99.90;;;;;;5085802;28;20032;-69
2021/11/06 10:06:36;;;;;;;3.47;2.10;;;18.00;99.90;;;;;;5073951;28;20485;-68
2021/11/06 10:09:07;;;;;;;3.85;1.85;;;18.00;99.90;;;;;;5084592;28;20028;-69
2021/11/06 10:11:33;;;;;;;3.22;1.73;;;18.00;99.90;;;;;;5081781;28;20380;-69
2021/11/06 10:14:06;;;;;;;5.55;1.98;;;18.00;99.90;;;;;;5076309;28;20035;-69
2021/11/06 10:16:51;;;;;;;3.85;1.90;;;18.00;99.90;;;;;;5087033;28;20031;-70
2021/11/06 10:19:17;;;;;;;3.67;1.80;;;18.00;99.90;;;;;;5079888;28;20028;-69
2021/11/06 10:21:47;;;;;;;2.88;1.65;;;18.10;99.90;;;;;;5078552;28;20371;-68
2021/11/06 10:24:15;;;;;;;4.65;2.20;;;18.10;99.90;;;;;;5087953;28;20024;-69
2021/11/06 10:26:41;;;;;;;4.22;2.03;;;18.10;99.90;;;;;;5074364;28;20040;-69
2021/11/06 10:29:15;;;;;;;4.07;1.92;;;18.10;99.90;;;;;;5090918;28;20071;-69
2021/11/06 10:31:58;;;;;;;3.40;1.80;;;18.10;99.90;;;;;;5078714;28;20113;-69
2021/11/06 10:34:26;;;;;;;4.22;1.73;;;18.10;99.90;;;;;;5087096;28;20032;-69
2021/11/06 10:37:05;;;;;;;3.10;1.60;;;18.20;99.90;;;;;;5076173;28;20050;-68
2021/11/06 10:39:31;;;;;;;2.92;1.27;;;18.20;99.90;;;;;;5079986;28;20094;-69
2021/11/06 10:42:15;;;;;;;3.22;1.52;;;18.20;99.90;;;;;;5084998;28;20028;-69
2021/11/06 10:44:42;;;;;;;4.05;1.60;;;18.20;99.90;;;;;;5074302;28;20103;-69
2021/11/06 10:47:09;;;;;;;3.30;1.50;;;18.20;99.90;;;;;;5083301;28;20036;-69
2021/11/06 10:49:40;;;;;;;4.22;1.80;;;18.20;99.90;;;;;;5081559;28;20024;-69
2021/11/06 10:52:18;;;;;;;5.43;1.80;;;18.20;99.90;;;;;;5075133;28;20031;-69
2021/11/06 10:55:16;;;;;;;2.55;1.58;;;18.20;99.90;;;;;;5078044;28;20040;-69
2021/11/06 10:57:42;;;;;;;2.75;1.70;;;18.20;99.90;;;;;;5057520;28;20033;-68
2021/11/06 11:00:18;;;;;;;2.60;1.38;;;18.20;99.90;;;;;;5090199;28;20391;-69
2021/11/06 11:02:44;;;;;;;2.17;1.30;;;18.20;99.90;;;;;;5078446;28;20028;-69
2021/11/06 11:05:34;;;;;;;3.28;1.48;;;18.30;99.90;;;;;;5094368;28;20085;-69
2021/11/06 11:08:07;;;;;;;4.18;1.40;;;18.30;99.90;;;;;;5079290;28;20534;-69
2021/11/06 11:10:38;;;;;;;2.38;1.45;;;18.30;99.90;;;;;;5090324;28;20036;-68
2021/11/06 11:13:20;;;;;;;3.30;1.55;;;18.30;99.90;;;;;;5080882;28;20028;-69
2021/11/06 11:15:52;;;;;;;2.08;1.40;;;18.30;99.90;;;;;;5081307;28;20431;-69
2021/11/06 11:18:36;;;;;;;2.08;1.15;;;18.30;99.90;;;;;;5090362;28;20024;-69
2021/11/06 11:21:27;;;;;;;3.15;1.63;;;18.30;99.90;;;;;;5093216;28;20077;-69
2021/11/06 11:23:59;;;;;;;3.00;1.42;;;18.30;99.90;;;;;;5094041;28;20495;-69
2021/11/06 11:26:33;;;;;;;2.22;1.20;;;18.30;99.90;;;;;;5089682;28;20028;-69
2021/11/06 11:29:01;;;;;;;2.92;1.42;;;18.40;99.90;;;;;;5092761;28;20050;-69
2021/11/06 11:31:27;;;;;;;3.05;1.50;;;18.40;99.90;;;;;;5092296;28;20020;-69
2021/11/06 11:33:54;;;;;;;3.83;1.20;;;18.40;99.90;;;;;;5093184;28;20038;-69
2021/11/06 11:36:23;;;;;;;5.13;1.55;;;18.40;99.90;;;;;;5093727;28;20028;-68
2021/11/06 11:38:50;;;;;;;4.45;1.70;;;18.40;99.90;;;;;;5093167;28;20069;-68
2021/11/06 11:41:28;;;;;;;2.20;1.27;;;18.40;99.90;;;;;;5092799;28;20044;-69
2021/11/06 11:44:12;;;;;;;2.60;1.33;;;18.40;99.90;;;;;;5092236;28;20115;-68
2021/11/06 11:46:43;;;;;;;2.97;1.60;;;18.40;99.90;;;;;;5089704;28;20024;-69
2021/11/06 11:49:10;;;;;;;3.67;1.50;;;18.40;99.90;;;;;;5080900;28;20029;-69
2021/11/06 11:51:36;;;;;;;3.85;1.58;;;18.50;99.90;;;;;;5089092;28;20081;-69
2021/11/06 11:54:06;;;;;;;2.30;1.10;;;18.50;99.90;;;;;;5091691;28;20036;-68
2021/11/06 11:56:32;;;;;;;3.70;1.70;;;18.50;99.90;;;;;;5091701;28;20480;-69
2021/11/06 11:59:00;;;;;;;2.42;1.33;;;18.40;99.90;;;;;;5091740;28;20038;-69
2021/11/06 12:01:27;;;;;;;2.33;1.50;;;18.50;99.90;;;;;;5090577;28;20020;-69
2021/11/06 12:03:54;;;;;;;2.85;1.52;;;18.50;99.90;;;;;;5092027;28;20061;-70
2021/11/06 12:06:29;;;;;;;2.63;1.50;;;18.50;99.90;;;;;;5091700;28;20051;-69
2021/11/06 12:09:10;;;;;;;4.07;1.60;;;18.50;99.90;;;;;;5090025;28;20024;-69
2021/11/06 12:11:46;;;;;;;5.18;1.60;;;18.50;99.90;;;;;;5090162;28;20381;-69
2021/11/06 12:14:29;;;;;;;3.85;1.60;;;18.50;99.90;;;;;;5089943;28;20081;-69
2021/11/06 12:17:03;;;;;;;4.40;1.55;;;18.50;99.90;;;;;;5091415;28;20170;-69
2021/11/06 12:19:42;;;;;;;4.20;1.63;;;18.50;99.90;;;;;;5091550;28;20111;-69
2021/11/06 12:22:12;;;;;;;3.00;1.40;;;18.50;99.90;;;;;;5093000;28;20027;-69
2021/11/06 12:24:39;;;;;;;3.28;1.80;;;18.50;99.90;;;;;;5091461;28;20114;-69
2021/11/06 12:27:08;;;;;;;4.95;1.60;;;18.50;99.90;;;;;;5091129;28;20398;-71
2021/11/06 12:29:45;;;;;;;3.42;1.60;;;18.50;99.90;;;;;;5092260;28;20032;-71
2021/11/06 12:32:35;;;;;;;2.67;1.50;;;18.50;99.90;;;;;;5079530;28;20550;-69
2021/11/06 12:35:18;;;;;;;3.78;1.40;;;18.60;99.90;;;;;;5091765;28;20036;-69
2021/11/06 12:37:46;;;;;;;1.98;1.23;;;18.50;99.90;;;;;;5092601;28;20023;-70
2021/11/06 12:40:15;;;;;;;4.80;1.48;;;18.60;99.90;;;;;;5074774;28;20020;-70
2021/11/06 12:43:10;;;;;;;3.55;1.52;;;18.50;99.90;;;;;;5075792;28;20020;-70
2021/11/06 12:45:37;;;;;;;3.25;1.27;;;18.60;99.90;;;;;;5092292;28;20114;-70
2021/11/06 12:48:20;;;;;;;3.10;1.15;;;18.60;99.90;;;;;;5077030;28;20142;-70